createdAt,value
2022-11-13T00:00:32.185Z,966.31
2022-11-13T00:01:32.325Z,966.33
2022-11-13T00:02:32.509Z,966.33
2022-11-13T00:03:32.130Z,966.38
2022-11-13T00:04:32.363Z,966.37
2022-11-13T00:05:32.120Z,966.33
2022-11-13T00:06:32.095Z,966.36
2022-11-13T00:07:32.116Z,966.35
2022-11-13T00:08:32.331Z,966.40
2022-11-13T00:09:32.066Z,966.47
2022-11-13T00:10:32.257Z,966.46
2022-11-13T00:11:32.982Z,966.48
2022-11-13T00:12:32.299Z,966.50
2022-11-13T00:13:32.035Z,966.41
2022-11-13T00:14:31.963Z,966.41
2022-11-13T00:15:31.978Z,966.40
2022-11-13T00:16:32.070Z,966.40
2022-11-13T00:17:32.222Z,966.40
2022-11-13T00:18:32.105Z,966.41
2022-11-13T00:19:31.991Z,966.35
2022-11-13T00:20:32.273Z,966.39
2022-11-13T00:21:31.864Z,966.36
2022-11-13T00:22:32.733Z,966.31
2022-11-13T00:23:31.823Z,966.36
2022-11-13T00:24:31.822Z,966.32
2022-11-13T00:25:31.857Z,966.33
2022-11-13T00:26:32.646Z,966.27
2022-11-13T00:27:32.244Z,966.29
2022-11-13T00:28:31.969Z,966.23
2022-11-13T00:29:31.791Z,966.20
2022-11-13T00:30:31.747Z,966.16
2022-11-13T00:31:31.786Z,966.16
2022-11-13T00:32:31.773Z,966.20
2022-11-13T00:34:01.870Z,966.14
2022-11-13T00:34:47.042Z,966.14
2022-11-13T00:35:32.664Z,966.07
2022-11-13T00:36:31.674Z,966.05
2022-11-13T00:37:31.737Z,966.07
2022-11-13T00:38:31.639Z,966.10
2022-11-13T00:39:31.608Z,966.09
2022-11-13T00:40:31.707Z,966.08
2022-11-13T00:41:31.646Z,966.07
2022-11-13T00:42:31.587Z,966.05
2022-11-13T00:43:31.648Z,966.05
2022-11-13T00:44:31.582Z,966.08
2022-11-13T00:45:31.544Z,965.96
2022-11-13T00:46:31.678Z,966.04
2022-11-13T00:47:31.491Z,966.03
2022-11-13T00:48:31.515Z,965.98
2022-11-13T00:49:31.505Z,965.98
2022-11-13T00:50:31.479Z,966.02
2022-11-13T00:51:31.517Z,965.98
2022-11-13T00:52:31.619Z,966.02
2022-11-13T00:53:31.421Z,965.93
2022-11-13T00:54:31.416Z,965.97
2022-11-13T00:55:31.517Z,965.97
2022-11-13T00:56:31.405Z,965.94
2022-11-13T00:57:31.349Z,965.92
2022-11-13T00:58:31.779Z,965.95
2022-11-13T00:59:31.337Z,965.90
2022-11-13T01:00:31.371Z,965.90
2022-11-13T01:01:31.568Z,965.93
2022-11-13T01:02:31.468Z,965.89
2022-11-13T01:03:31.300Z,965.86
2022-11-13T01:04:31.395Z,965.84
2022-11-13T01:05:31.300Z,965.88
2022-11-13T01:06:31.264Z,965.86
2022-11-13T01:07:31.444Z,965.85
2022-11-13T01:08:31.313Z,965.82
2022-11-13T01:09:31.575Z,965.85
2022-11-13T01:10:31.737Z,965.76
2022-11-13T01:11:31.182Z,965.80
2022-11-13T01:12:31.183Z,965.75
2022-11-13T01:13:31.465Z,965.75
2022-11-13T01:14:31.140Z,965.68
2022-11-13T01:15:31.125Z,965.67
2022-11-13T01:16:31.199Z,965.68
2022-11-13T01:17:31.081Z,965.65
2022-11-13T01:18:31.163Z,965.65
2022-11-13T01:19:31.101Z,965.64
2022-11-13T01:20:31.061Z,965.60
2022-11-13T01:21:31.092Z,965.59
2022-11-13T01:22:31.157Z,965.59
2022-11-13T01:23:30.987Z,965.58
2022-11-13T01:24:31.132Z,965.57
2022-11-13T01:25:31.155Z,965.59
2022-11-13T01:26:31.033Z,965.57
2022-11-13T01:27:30.929Z,965.49
2022-11-13T01:28:31.218Z,965.48
2022-11-13T01:29:30.929Z,965.46
2022-11-13T01:30:30.919Z,965.47
2022-11-13T01:31:30.933Z,965.49
2022-11-13T01:32:30.881Z,965.47
2022-11-13T01:33:30.909Z,965.45
2022-11-13T01:34:30.967Z,965.49
2022-11-13T01:35:30.826Z,965.53
2022-11-13T01:36:30.810Z,965.53
2022-11-13T01:37:30.879Z,965.49
2022-11-13T01:38:35.761Z,965.49
2022-11-13T01:39:31.912Z,965.50
2022-11-13T01:40:30.793Z,965.45
2022-11-13T01:41:30.759Z,965.48
2022-11-13T01:42:30.779Z,965.49
2022-11-13T01:43:30.768Z,965.46
2022-11-13T01:44:30.729Z,965.47
2022-11-13T01:45:30.839Z,965.45
2022-11-13T01:46:31.065Z,965.40
2022-11-13T01:47:30.662Z,965.38
2022-11-13T01:48:30.855Z,965.33
2022-11-13T01:49:30.797Z,965.31
2022-11-13T01:50:30.630Z,965.32
2022-11-13T01:51:30.773Z,965.27
2022-11-13T01:52:30.603Z,965.30
2022-11-13T01:53:30.600Z,965.28
2022-11-13T01:54:31.592Z,965.28
2022-11-13T01:55:30.585Z,965.31
2022-11-13T01:56:30.526Z,965.25
2022-11-13T01:57:30.595Z,965.23
2022-11-13T01:58:30.724Z,965.27
2022-11-13T01:59:30.526Z,965.27
2022-11-13T02:00:30.747Z,965.23
2022-11-13T02:01:30.517Z,965.21
2022-11-13T02:02:30.743Z,965.23
2022-11-13T02:03:30.642Z,965.25
2022-11-13T02:04:31.382Z,965.27
2022-11-13T02:05:30.559Z,965.18
2022-11-13T02:06:30.409Z,965.21
2022-11-13T02:07:30.402Z,965.18
2022-11-13T02:08:30.745Z,965.17
2022-11-13T02:09:30.553Z,965.13
2022-11-13T02:10:30.351Z,965.14
2022-11-13T02:11:30.337Z,965.12
2022-11-13T02:12:30.313Z,965.13
2022-11-13T02:13:30.459Z,965.12
2022-11-13T02:14:30.377Z,965.13
2022-11-13T02:15:30.351Z,965.08
2022-11-13T02:16:30.408Z,965.12
2022-11-13T02:17:30.253Z,965.06
2022-11-13T02:18:30.620Z,965.08
2022-11-13T02:19:30.292Z,965.06
2022-11-13T02:20:30.202Z,965.04
2022-11-13T02:21:30.684Z,965.01
2022-11-13T02:22:30.175Z,965.05
2022-11-13T02:23:30.500Z,965.01
2022-11-13T02:24:32.400Z,965.01
2022-11-13T02:25:30.187Z,964.98
2022-11-13T02:26:30.115Z,964.93
2022-11-13T02:27:30.914Z,964.95
2022-11-13T02:28:30.612Z,964.88
2022-11-13T02:29:30.124Z,964.90
2022-11-13T02:30:30.082Z,964.87
2022-11-13T02:31:30.132Z,964.87
2022-11-13T02:32:30.098Z,964.84
2022-11-13T02:33:30.250Z,964.85
2022-11-13T02:34:31.086Z,964.78
2022-11-13T02:35:29.980Z,964.82
2022-11-13T02:36:29.978Z,964.82
2022-11-13T02:37:29.987Z,964.80
2022-11-13T02:38:30.328Z,964.76
2022-11-13T02:39:31.769Z,964.76
2022-11-13T02:40:29.984Z,964.75
2022-11-13T02:41:29.936Z,964.79
2022-11-13T02:42:29.894Z,964.78
2022-11-13T02:43:31.277Z,964.76
2022-11-13T02:44:29.909Z,964.78
2022-11-13T02:45:29.940Z,964.73
2022-11-13T02:46:29.869Z,964.72
2022-11-13T02:47:29.810Z,964.74
2022-11-13T02:48:30.425Z,964.74
2022-11-13T02:49:30.046Z,964.67
2022-11-13T02:50:29.779Z,964.66
2022-11-13T02:51:29.959Z,964.66
2022-11-13T02:52:29.788Z,964.64
2022-11-13T02:53:29.778Z,964.62
2022-11-13T02:54:29.728Z,964.59
2022-11-13T02:55:29.730Z,964.60
2022-11-13T02:56:29.717Z,964.56
2022-11-13T02:57:29.776Z,964.58
2022-11-13T02:58:30.824Z,964.59
2022-11-13T02:59:29.999Z,964.59
2022-11-13T03:00:29.736Z,964.61
2022-11-13T03:01:29.758Z,964.62
2022-11-13T03:02:29.715Z,964.60
2022-11-13T03:03:56.644Z,964.53
2022-11-13T03:04:50.257Z,964.54
2022-11-13T03:05:31.086Z,964.55
2022-11-13T03:06:29.793Z,964.53
2022-11-13T03:07:29.825Z,964.53
2022-11-13T03:08:30.856Z,964.53
2022-11-13T03:09:29.598Z,964.53
2022-11-13T03:10:29.502Z,964.52
2022-11-13T03:11:29.496Z,964.49
2022-11-13T03:12:29.681Z,964.51
2022-11-13T03:13:29.491Z,964.48
2022-11-13T03:14:29.664Z,964.51
2022-11-13T03:15:29.513Z,964.48
2022-11-13T03:16:29.454Z,964.44
2022-11-13T03:17:29.456Z,964.42
2022-11-13T03:18:30.113Z,964.41
2022-11-13T03:19:29.534Z,964.38
2022-11-13T03:20:29.366Z,964.37
2022-11-13T03:21:29.464Z,964.37
2022-11-13T03:22:29.383Z,964.38
2022-11-13T03:23:29.325Z,964.37
2022-11-13T03:24:29.646Z,964.38
2022-11-13T03:25:29.436Z,964.41
2022-11-13T03:26:29.625Z,964.39
2022-11-13T03:27:29.375Z,964.42
2022-11-13T03:28:30.035Z,964.41
2022-11-13T03:29:29.330Z,964.42
2022-11-13T03:30:29.293Z,964.39
2022-11-13T03:31:29.258Z,964.41
2022-11-13T03:32:29.210Z,964.39
2022-11-13T03:33:29.330Z,964.38
2022-11-13T03:34:29.619Z,964.40
2022-11-13T03:35:31.818Z,964.41
2022-11-13T03:36:29.249Z,964.40
2022-11-13T03:37:29.420Z,964.40
2022-11-13T03:38:29.510Z,964.40
2022-11-13T03:39:29.260Z,964.41
2022-11-13T03:40:29.114Z,964.40
2022-11-13T03:41:29.136Z,964.42
2022-11-13T03:42:29.097Z,964.39
2022-11-13T03:43:29.115Z,964.41
2022-11-13T03:44:29.095Z,964.41
2022-11-13T03:45:29.226Z,964.40
2022-11-13T03:46:29.942Z,964.36
2022-11-13T03:47:29.167Z,964.38
2022-11-13T03:48:29.663Z,964.37
2022-11-13T03:49:29.142Z,964.42
2022-11-13T03:50:28.934Z,964.35
2022-11-13T03:51:29.063Z,964.40
2022-11-13T03:52:28.909Z,964.39
2022-11-13T03:53:28.918Z,964.37
2022-11-13T03:54:28.904Z,964.38
2022-11-13T03:55:28.985Z,964.34
2022-11-13T03:56:28.854Z,964.35
2022-11-13T03:57:28.979Z,964.32
2022-11-13T03:58:29.075Z,964.31
2022-11-13T03:59:28.802Z,964.27
2022-11-13T04:00:28.784Z,964.28
2022-11-13T04:01:28.824Z,964.28
2022-11-13T04:02:28.764Z,964.25
2022-11-13T04:03:28.827Z,964.27
2022-11-13T04:04:28.752Z,964.25
2022-11-13T04:05:28.763Z,964.25
2022-11-13T04:06:28.691Z,964.23
2022-11-13T04:07:28.725Z,964.19
2022-11-13T04:08:28.955Z,964.17
2022-11-13T04:09:28.790Z,964.18
2022-11-13T04:10:28.680Z,964.18
2022-11-13T04:11:28.679Z,964.10
2022-11-13T04:12:28.611Z,964.11
2022-11-13T04:13:28.639Z,964.08
2022-11-13T04:14:28.640Z,964.04
2022-11-13T04:15:28.676Z,964.09
2022-11-13T04:16:28.585Z,964.03
2022-11-13T04:17:28.656Z,964.06
2022-11-13T04:18:28.890Z,964.03
2022-11-13T04:19:28.568Z,964.06
2022-11-13T04:20:28.875Z,964.03
2022-11-13T04:21:28.653Z,964.03
2022-11-13T04:22:28.471Z,964.02
2022-11-13T04:23:28.694Z,963.99
2022-11-13T04:24:28.937Z,963.98
2022-11-13T04:25:28.617Z,963.96
2022-11-13T04:26:28.425Z,963.97
2022-11-13T04:27:28.487Z,963.88
2022-11-13T04:28:28.751Z,963.87
2022-11-13T04:29:28.382Z,963.91
2022-11-13T04:30:28.356Z,963.85
2022-11-13T04:31:28.402Z,963.83
2022-11-13T04:32:28.333Z,963.85
2022-11-13T04:33:28.477Z,963.83
2022-11-13T04:34:28.313Z,963.86
2022-11-13T04:35:28.304Z,963.86
2022-11-13T04:36:28.322Z,963.82
2022-11-13T04:37:28.319Z,963.82
2022-11-13T04:38:28.691Z,963.82
2022-11-13T04:39:28.344Z,963.84
2022-11-13T04:40:28.239Z,963.86
2022-11-13T04:41:28.270Z,963.84
2022-11-13T04:42:28.195Z,963.88
2022-11-13T04:43:28.220Z,963.84
2022-11-13T04:44:28.827Z,963.84
2022-11-13T04:45:28.264Z,963.84
2022-11-13T04:46:28.141Z,963.84
2022-11-13T04:47:28.551Z,963.81
2022-11-13T04:48:28.453Z,963.79
2022-11-13T04:49:28.146Z,963.80
2022-11-13T04:50:28.918Z,963.78
2022-11-13T04:51:28.212Z,963.81
2022-11-13T04:52:28.051Z,963.83
2022-11-13T04:53:28.062Z,963.76
2022-11-13T04:54:29.055Z,963.81
2022-11-13T04:55:28.036Z,963.74
2022-11-13T04:56:28.010Z,963.72
2022-11-13T04:57:28.516Z,963.73
2022-11-13T04:58:28.232Z,963.66
2022-11-13T04:59:27.980Z,963.69
2022-11-13T05:00:28.045Z,963.65
2022-11-13T05:01:28.009Z,963.73
2022-11-13T05:02:27.949Z,963.70
2022-11-13T05:03:28.476Z,963.71
2022-11-13T05:04:27.918Z,963.66
2022-11-13T05:05:28.553Z,963.66
2022-11-13T05:06:27.862Z,963.65
2022-11-13T05:07:27.889Z,963.58
2022-11-13T05:08:28.210Z,963.60
2022-11-13T05:09:28.052Z,963.65
2022-11-13T05:10:27.881Z,963.69
2022-11-13T05:11:27.796Z,963.74
2022-11-13T05:12:27.801Z,963.74
2022-11-13T05:13:27.802Z,963.67
2022-11-13T05:14:27.755Z,963.59
2022-11-13T05:15:27.837Z,963.59
2022-11-13T05:16:27.718Z,963.58
2022-11-13T05:17:27.733Z,963.68
2022-11-13T05:18:27.984Z,963.65
2022-11-13T05:19:27.873Z,963.72
2022-11-13T05:20:27.672Z,963.77
2022-11-13T05:21:27.877Z,963.73
2022-11-13T05:22:27.919Z,963.75
2022-11-13T05:23:27.637Z,963.72
2022-11-13T05:24:27.613Z,963.71
2022-11-13T05:25:27.716Z,963.64
2022-11-13T05:26:27.587Z,963.54
2022-11-13T05:27:27.657Z,963.56
2022-11-13T05:28:27.875Z,963.52
2022-11-13T05:29:27.578Z,963.50
2022-11-13T05:30:28.096Z,963.49
2022-11-13T05:31:27.699Z,963.52
2022-11-13T05:32:27.528Z,963.50
2022-11-13T05:33:27.586Z,963.43
2022-11-13T05:34:27.501Z,963.45
2022-11-13T05:35:27.507Z,963.43
2022-11-13T05:36:27.501Z,963.39
2022-11-13T05:37:27.554Z,963.38
2022-11-13T05:38:27.839Z,963.33
2022-11-13T05:39:27.564Z,963.33
2022-11-13T05:40:27.400Z,963.34
2022-11-13T05:41:27.442Z,963.32
2022-11-13T05:42:27.386Z,963.35
2022-11-13T05:43:27.403Z,963.34
2022-11-13T05:44:27.371Z,963.33
2022-11-13T05:45:27.427Z,963.25
2022-11-13T05:46:27.437Z,963.23
2022-11-13T05:47:27.592Z,963.24
2022-11-13T05:48:27.562Z,963.25
2022-11-13T05:49:27.531Z,963.25
2022-11-13T05:50:27.259Z,963.25
2022-11-13T05:51:28.378Z,963.23
2022-11-13T05:52:27.213Z,963.22
2022-11-13T05:53:27.202Z,963.20
2022-11-13T05:54:27.186Z,963.21
2022-11-13T05:55:27.189Z,963.24
2022-11-13T05:56:27.185Z,963.19
2022-11-13T05:57:27.399Z,963.19
2022-11-13T05:58:27.399Z,963.18
2022-11-13T05:59:27.122Z,963.10
2022-11-13T06:00:27.123Z,963.06
2022-11-13T06:01:27.185Z,963.04
2022-11-13T06:02:27.178Z,962.99
2022-11-13T06:03:27.188Z,962.98
2022-11-13T06:04:27.039Z,962.97
2022-11-13T06:05:27.064Z,962.97
2022-11-13T06:06:27.207Z,962.99
2022-11-13T06:07:27.035Z,962.94
2022-11-13T06:08:27.455Z,962.97
2022-11-13T06:09:27.088Z,962.95
2022-11-13T06:10:26.963Z,962.95
2022-11-13T06:11:26.996Z,962.90
2022-11-13T06:12:26.935Z,962.91
2022-11-13T06:13:26.961Z,962.90
2022-11-13T06:14:27.018Z,962.90
2022-11-13T06:15:26.970Z,962.92
2022-11-13T06:16:26.897Z,962.90
2022-11-13T06:17:26.881Z,962.90
2022-11-13T06:18:27.055Z,962.87
2022-11-13T06:19:26.891Z,962.93
2022-11-13T06:20:26.833Z,962.95
2022-11-13T06:21:27.087Z,962.92
2022-11-13T06:22:26.797Z,962.88
2022-11-13T06:23:26.782Z,962.94
2022-11-13T06:24:26.766Z,962.90
2022-11-13T06:25:27.445Z,962.94
2022-11-13T06:26:26.734Z,962.91
2022-11-13T06:27:27.076Z,962.98
2022-11-13T06:28:27.090Z,962.98
2022-11-13T06:29:26.817Z,962.95
2022-11-13T06:30:26.669Z,962.98
2022-11-13T06:31:26.724Z,962.99
2022-11-13T06:32:26.660Z,963.01
2022-11-13T06:33:26.803Z,962.98
2022-11-13T06:34:26.609Z,962.96
2022-11-13T06:35:27.104Z,962.90
2022-11-13T06:36:26.595Z,962.85
2022-11-13T06:37:26.659Z,962.84
2022-11-13T06:38:26.902Z,962.78
2022-11-13T06:39:26.815Z,962.81
2022-11-13T06:40:26.592Z,962.79
2022-11-13T06:41:26.521Z,962.79
2022-11-13T06:42:26.536Z,962.77
2022-11-13T06:43:37.306Z,962.83
2022-11-13T06:44:26.652Z,962.81
2022-11-13T06:45:26.728Z,962.85
2022-11-13T06:46:26.489Z,962.86
2022-11-13T06:47:26.563Z,962.89
2022-11-13T06:48:26.898Z,962.87
2022-11-13T06:49:26.712Z,962.86
2022-11-13T06:50:28.109Z,962.94
2022-11-13T06:51:26.380Z,962.86
2022-11-13T06:52:27.033Z,962.90
2022-11-13T06:53:26.457Z,962.90
2022-11-13T06:54:26.434Z,962.95
2022-11-13T06:55:26.417Z,962.88
2022-11-13T06:56:26.469Z,962.91
2022-11-13T06:57:26.437Z,962.84
2022-11-13T06:58:26.737Z,962.87
2022-11-13T06:59:27.046Z,962.87
2022-11-13T07:00:26.553Z,962.93
2022-11-13T07:01:26.319Z,962.88
2022-11-13T07:02:26.710Z,962.93
2022-11-13T07:03:26.247Z,962.92
2022-11-13T07:04:27.084Z,962.94
2022-11-13T07:05:26.297Z,962.90
2022-11-13T07:06:26.178Z,962.91
2022-11-13T07:07:26.211Z,962.91
2022-11-13T07:08:26.651Z,962.91
2022-11-13T07:09:26.312Z,962.91
2022-11-13T07:10:26.234Z,962.89
2022-11-13T07:11:26.150Z,962.84
2022-11-13T07:12:26.106Z,962.88
2022-11-13T07:13:26.078Z,962.87
2022-11-13T07:14:26.327Z,962.86
2022-11-13T07:15:27.162Z,962.90
2022-11-13T07:16:31.273Z,962.91
2022-11-13T07:17:27.060Z,962.86
2022-11-13T07:18:26.334Z,962.88
2022-11-13T07:19:26.667Z,962.90
2022-11-13T07:20:26.210Z,962.89
2022-11-13T07:21:25.967Z,962.89
2022-11-13T07:22:25.993Z,962.92
2022-11-13T07:23:25.989Z,962.90
2022-11-13T07:24:26.168Z,962.85
2022-11-13T07:25:26.390Z,962.88
2022-11-13T07:26:26.116Z,962.87
2022-11-13T07:27:25.888Z,962.90
2022-11-13T07:28:26.655Z,962.81
2022-11-13T07:29:26.990Z,962.77
2022-11-13T07:30:25.894Z,962.79
2022-11-13T07:31:26.603Z,962.75
2022-11-13T07:32:26.114Z,962.75
2022-11-13T07:33:26.386Z,962.74
2022-11-13T07:34:25.880Z,962.74
2022-11-13T07:35:25.920Z,962.74
2022-11-13T07:36:25.979Z,962.71
2022-11-13T07:37:25.767Z,962.65
2022-11-13T07:38:26.368Z,962.64
2022-11-13T07:39:26.098Z,962.64
2022-11-13T07:40:25.724Z,962.59
2022-11-13T07:41:25.753Z,962.58
2022-11-13T07:42:25.736Z,962.54
2022-11-13T07:43:26.032Z,962.49
2022-11-13T07:44:53.008Z,962.48
2022-11-13T07:45:26.684Z,962.50
2022-11-13T07:46:25.740Z,962.49
2022-11-13T07:47:25.624Z,962.51
2022-11-13T07:48:25.726Z,962.47
2022-11-13T07:49:25.972Z,962.49
2022-11-13T07:50:25.794Z,962.43
2022-11-13T07:51:25.562Z,962.44
2022-11-13T07:52:25.559Z,962.42
2022-11-13T07:53:25.602Z,962.43
2022-11-13T07:54:25.578Z,962.39
2022-11-13T07:55:25.970Z,962.39
2022-11-13T07:56:25.971Z,962.38
2022-11-13T07:57:25.981Z,962.38
2022-11-13T07:58:25.650Z,962.38
2022-11-13T07:59:25.974Z,962.43
2022-11-13T08:00:25.680Z,962.43
2022-11-13T08:01:25.557Z,962.37
2022-11-13T08:02:26.871Z,962.41
2022-11-13T08:03:25.410Z,962.44
2022-11-13T08:04:25.375Z,962.40
2022-11-13T08:05:25.492Z,962.41
2022-11-13T08:06:25.345Z,962.36
2022-11-13T08:07:25.366Z,962.34
2022-11-13T08:08:25.542Z,962.34
2022-11-13T08:09:25.355Z,962.30
2022-11-13T08:10:25.301Z,962.34
2022-11-13T08:11:25.381Z,962.35
2022-11-13T08:12:25.269Z,962.32
2022-11-13T08:13:25.408Z,962.30
2022-11-13T08:14:27.699Z,962.31
2022-11-13T08:15:25.443Z,962.35
2022-11-13T08:16:25.373Z,962.38
2022-11-13T08:17:25.388Z,962.44
2022-11-13T08:18:25.230Z,962.43
2022-11-13T08:19:25.202Z,962.42
2022-11-13T08:20:25.633Z,962.45
2022-11-13T08:21:26.780Z,962.41
2022-11-13T08:22:25.346Z,962.43
2022-11-13T08:23:25.131Z,962.43
2022-11-13T08:24:25.624Z,962.45
2022-11-13T08:25:25.064Z,962.47
2022-11-13T08:26:25.313Z,962.38
2022-11-13T08:27:25.322Z,962.44
2022-11-13T08:28:25.142Z,962.45
2022-11-13T08:29:25.039Z,962.48
2022-11-13T08:30:25.121Z,962.48
2022-11-13T08:31:25.038Z,962.49
2022-11-13T08:32:25.034Z,962.49
2022-11-13T08:33:25.034Z,962.49
2022-11-13T08:34:25.001Z,962.48
2022-11-13T08:35:29.026Z,962.41
2022-11-13T08:36:25.106Z,962.38
2022-11-13T08:37:25.035Z,962.33
2022-11-13T08:38:24.996Z,962.30
2022-11-13T08:39:24.948Z,962.38
2022-11-13T08:40:24.878Z,962.36
2022-11-13T08:41:24.881Z,962.36
2022-11-13T08:42:24.979Z,962.35
2022-11-13T08:43:24.870Z,962.38
2022-11-13T08:44:24.837Z,962.42
2022-11-13T08:45:24.977Z,962.44
2022-11-13T08:46:24.812Z,962.41
2022-11-13T08:47:29.338Z,962.45
2022-11-13T08:48:24.946Z,962.50
2022-11-13T08:49:24.740Z,962.52
2022-11-13T08:50:24.739Z,962.53
2022-11-13T08:51:24.735Z,962.50
2022-11-13T08:52:24.689Z,962.46
2022-11-13T08:53:24.707Z,962.41
2022-11-13T08:54:24.754Z,962.38
2022-11-13T08:55:24.698Z,962.32
2022-11-13T08:56:24.693Z,962.24
2022-11-13T08:57:24.698Z,962.25
2022-11-13T08:58:24.599Z,962.20
2022-11-13T08:59:24.676Z,962.16
2022-11-13T09:00:25.076Z,962.11
2022-11-13T09:01:24.569Z,962.13
2022-11-13T09:02:24.723Z,962.08
2022-11-13T09:03:24.603Z,962.09
2022-11-13T09:04:24.572Z,962.12
2022-11-13T09:05:24.611Z,962.10
2022-11-13T09:06:24.985Z,962.03
2022-11-13T09:07:27.402Z,962.03
2022-11-13T09:08:24.535Z,961.98
2022-11-13T09:09:25.247Z,961.99
2022-11-13T09:10:24.492Z,962.08
2022-11-13T09:11:24.506Z,962.03
2022-11-13T09:12:24.536Z,962.06
2022-11-13T09:13:24.415Z,962.02
2022-11-13T09:14:24.473Z,962.02
2022-11-13T09:15:24.733Z,962.00
2022-11-13T09:16:24.394Z,961.94
2022-11-13T09:17:24.437Z,961.82
2022-11-13T09:18:24.603Z,961.79
2022-11-13T09:19:24.351Z,961.73
2022-11-13T09:20:24.463Z,961.71
2022-11-13T09:21:24.373Z,961.67
2022-11-13T09:22:24.260Z,961.72
2022-11-13T09:23:24.320Z,961.74
2022-11-13T09:24:24.590Z,961.74
2022-11-13T09:25:24.236Z,961.71
2022-11-13T09:26:24.267Z,961.74
2022-11-13T09:27:24.284Z,961.73
2022-11-13T09:28:24.180Z,961.74
2022-11-13T09:29:24.189Z,961.74
2022-11-13T09:30:24.538Z,961.71
2022-11-13T09:31:24.136Z,961.75
2022-11-13T09:32:24.134Z,961.74
2022-11-13T09:33:24.139Z,961.81
2022-11-13T09:34:24.551Z,961.87
2022-11-13T09:35:24.091Z,961.90
2022-11-13T09:36:24.263Z,961.85
2022-11-13T09:37:24.292Z,961.84
2022-11-13T09:38:24.115Z,961.91
2022-11-13T09:39:24.249Z,961.88
2022-11-13T09:40:24.038Z,961.88
2022-11-13T09:41:24.072Z,961.94
2022-11-13T09:42:24.540Z,961.97
2022-11-13T09:43:24.002Z,962.00
2022-11-13T09:45:00.499Z,961.98
2022-11-13T09:45:58.887Z,961.96
2022-11-13T09:46:58.270Z,961.92
2022-11-13T09:47:57.983Z,961.89
2022-11-13T09:48:57.994Z,961.93
2022-11-13T09:49:57.350Z,961.93
2022-11-13T09:50:57.147Z,961.88
2022-11-13T09:51:56.891Z,961.88
2022-11-13T09:52:56.284Z,961.85
2022-11-13T09:53:56.515Z,961.82
2022-11-13T09:54:56.957Z,961.82
2022-11-13T09:55:56.541Z,961.78
2022-11-13T09:56:56.274Z,961.74
2022-11-13T09:57:56.463Z,961.71
2022-11-13T09:58:56.208Z,961.66
2022-11-13T09:59:56.376Z,961.69
2022-11-13T10:00:57.247Z,961.71
2022-11-13T10:01:58.345Z,961.65
2022-11-13T10:02:56.212Z,961.66
2022-11-13T10:04:02.429Z,961.61
2022-11-13T10:04:57.433Z,961.64
2022-11-13T10:05:57.116Z,961.65
2022-11-13T10:06:56.135Z,961.69
2022-11-13T10:07:56.420Z,961.80
2022-11-13T10:08:56.535Z,961.85
2022-11-13T10:09:57.871Z,961.91
2022-11-13T10:10:56.417Z,961.92
2022-11-13T10:11:56.261Z,961.95
2022-11-13T10:12:56.041Z,961.94
2022-11-13T10:13:56.389Z,961.94
2022-11-13T10:14:56.474Z,961.84
2022-11-13T10:15:58.593Z,961.83
2022-11-13T10:16:55.992Z,961.82
2022-11-13T10:17:56.966Z,961.82
2022-11-13T10:18:55.959Z,961.73
2022-11-13T10:19:58.180Z,961.72
2022-11-13T10:20:56.331Z,961.71
2022-11-13T10:22:07.770Z,961.71
2022-11-13T10:22:58.265Z,961.69
2022-11-13T10:23:55.949Z,961.72
2022-11-13T10:24:55.873Z,961.73
2022-11-13T10:25:56.114Z,961.74
2022-11-13T10:26:55.871Z,961.65
2022-11-13T10:27:56.236Z,961.60
2022-11-13T10:28:55.873Z,961.53
2022-11-13T10:29:56.077Z,961.52
2022-11-13T10:30:56.079Z,961.51
2022-11-13T10:31:55.998Z,961.53
2022-11-13T10:32:55.809Z,961.53
2022-11-13T10:33:58.579Z,961.53
2022-11-13T10:34:55.755Z,961.53
2022-11-13T10:35:59.541Z,961.51
2022-11-13T10:36:55.757Z,961.45
2022-11-13T10:37:56.327Z,961.41
2022-11-13T10:38:55.731Z,961.38
2022-11-13T10:39:56.546Z,961.34
2022-11-13T10:40:55.667Z,961.35
2022-11-13T10:41:57.047Z,961.34
2022-11-13T10:42:55.642Z,961.35
2022-11-13T10:43:56.068Z,961.31
2022-11-13T10:44:55.765Z,961.28
2022-11-13T10:45:58.491Z,961.29
2022-11-13T10:46:55.732Z,961.25
2022-11-13T10:48:04.244Z,961.29
2022-11-13T10:48:56.537Z,961.23
2022-11-13T10:49:56.054Z,961.23
2022-11-13T10:50:56.214Z,961.28
2022-11-13T10:51:56.586Z,961.26
2022-11-13T10:52:55.464Z,961.31
2022-11-13T10:53:55.823Z,961.23
2022-11-13T10:54:55.459Z,961.24
2022-11-13T10:55:55.850Z,961.21
2022-11-13T10:56:55.453Z,961.19
2022-11-13T10:57:56.654Z,961.17
2022-11-13T10:58:55.427Z,961.20
2022-11-13T10:59:55.830Z,961.20
2022-11-13T11:00:56.275Z,961.27
2022-11-13T11:01:56.188Z,961.21
2022-11-13T11:02:55.462Z,961.25
2022-11-13T11:03:55.913Z,961.27
2022-11-13T11:04:55.320Z,961.22
2022-11-13T11:05:56.337Z,961.24
2022-11-13T11:07:57.415Z,961.24
2022-11-13T11:08:55.271Z,961.21
2022-11-13T11:09:58.076Z,961.20
2022-11-13T11:10:55.231Z,961.21
2022-11-13T11:11:56.645Z,961.20
2022-11-13T11:12:55.218Z,961.22
2022-11-13T11:13:58.252Z,961.22
2022-11-13T11:14:56.291Z,961.25
2022-11-13T11:15:56.622Z,961.24
2022-11-13T11:16:55.167Z,961.24
2022-11-13T11:17:57.132Z,961.29
2022-11-13T11:18:55.144Z,961.28
2022-11-13T11:19:58.310Z,961.23
2022-11-13T11:20:56.297Z,961.24
2022-11-13T11:21:56.744Z,961.21
2022-11-13T11:22:55.093Z,961.20
2022-11-13T11:23:56.506Z,961.20
2022-11-13T11:24:55.440Z,961.18
2022-11-13T11:26:00.050Z,961.18
2022-11-13T11:26:55.031Z,961.16
2022-11-13T11:27:55.938Z,961.10
2022-11-13T11:28:55.065Z,961.09
2022-11-13T11:29:58.729Z,961.05
2022-11-13T11:30:55.771Z,961.05
2022-11-13T11:31:56.119Z,961.03
2022-11-13T11:32:54.948Z,960.90
2022-11-13T11:33:55.285Z,960.90
2022-11-13T11:34:58.911Z,960.85
2022-11-13T11:35:57.204Z,960.85
2022-11-13T11:36:54.949Z,960.86
2022-11-13T11:37:56.750Z,960.92
2022-11-13T11:38:54.880Z,960.88
2022-11-13T11:39:55.527Z,960.87
2022-11-13T11:40:54.848Z,960.88
2022-11-13T11:41:55.749Z,960.84
2022-11-13T11:42:55.080Z,960.79
2022-11-13T11:43:55.141Z,960.79
2022-11-13T11:44:55.005Z,960.71
2022-11-13T11:45:57.763Z,960.79
2022-11-13T11:46:54.723Z,960.75
2022-11-13T11:47:55.605Z,960.71
2022-11-13T11:48:54.724Z,960.69
2022-11-13T11:49:55.103Z,960.66
2022-11-13T11:50:55.078Z,960.67
2022-11-13T11:51:56.518Z,960.68
2022-11-13T11:52:54.643Z,960.72
2022-11-13T11:53:55.485Z,960.73
2022-11-13T11:54:54.966Z,960.70
2022-11-13T11:55:59.018Z,960.68
2022-11-13T11:56:54.601Z,960.63
2022-11-13T11:57:55.230Z,960.55
2022-11-13T11:58:54.568Z,960.52
2022-11-13T11:59:54.860Z,960.56
2022-11-13T12:00:55.558Z,960.53
2022-11-13T12:01:54.839Z,960.53
2022-11-13T12:02:54.524Z,960.52
2022-11-13T12:03:58.509Z,960.53
2022-11-13T12:04:54.698Z,960.52
2022-11-13T12:05:57.719Z,960.45
2022-11-13T12:06:54.570Z,960.45
2022-11-13T12:07:55.153Z,960.42
2022-11-13T12:08:54.420Z,960.38
2022-11-13T12:09:55.278Z,960.43
2022-11-13T12:10:54.472Z,960.36
2022-11-13T12:11:57.785Z,960.37
2022-11-13T12:12:54.429Z,960.30
2022-11-13T12:13:55.700Z,960.26
2022-11-13T12:14:54.387Z,960.22
2022-11-13T12:15:56.135Z,960.23
2022-11-13T12:16:54.345Z,960.22
2022-11-13T12:17:55.734Z,960.22
2022-11-13T12:18:54.305Z,960.20
2022-11-13T12:19:55.929Z,960.18
2022-11-13T12:20:55.733Z,960.20
2022-11-13T12:21:55.390Z,960.23
2022-11-13T12:22:54.619Z,960.25
2022-11-13T12:23:55.665Z,960.26
2022-11-13T12:24:54.254Z,960.31
2022-11-13T12:25:55.415Z,960.32
2022-11-13T12:26:54.364Z,960.30
2022-11-13T12:27:54.614Z,960.26
2022-11-13T12:28:54.177Z,960.23
2022-11-13T12:30:01.314Z,960.22